Time;durP1;ratioP1;P1;durP2;ratioP2;P2;SDS_P1;SDS_P2;PMS_P1;PMS_P2;Temp;Humidity;BMP_temperature;BMP_pressure;BME280_temperature;BME280_humidity;BME280_pressure;Samples;Min_cycle;Max_cycle;Signal;HPM_P1;HPM_P2
2021/12/27 00:01:07;;;;;;;8.83;8.33;;;10.30;60.60;;;;;;21160;6640;330479;-84
2021/12/27 00:03:32;;;;;;;8.43;7.93;;;10.30;60.90;;;;;;21201;6640;300979;-83
2021/12/27 00:05:58;;;;;;;6.00;5.70;;;10.40;60.40;;;;;;21389;6640;66779;-85
2021/12/27 00:08:23;;;;;;;7.70;7.30;;;10.30;60.40;;;;;;21198;6628;300880;-84
2021/12/27 00:10:49;;;;;;;6.30;6.00;;;10.20;60.00;;;;;;21381;6640;69008;-87
2021/12/27 00:13:14;;;;;;;7.87;7.37;;;10.00;60.20;;;;;;21384;6640;67577;-84
2021/12/27 00:15:42;;;;;;;7.33;6.87;;;9.70;61.90;;;;;;21383;6640;69851;-84
2021/12/27 00:18:06;;;;;;;9.18;8.38;;;9.40;62.70;;;;;;21181;6640;301323;-84
2021/12/27 00:20:32;;;;;;;8.50;8.00;;;9.80;62.10;;;;;;21217;6628;277242;-83
2021/12/27 00:22:57;;;;;;;10.03;9.33;;;9.70;61.90;;;;;;21388;6640;66176;-85
2021/12/27 00:25:23;;;;;;;12.93;11.73;;;9.70;62.00;;;;;;21392;6640;66171;-83
2021/12/27 00:27:49;;;;;;;9.95;9.15;;;9.20;63.80;;;;;;21457;6632;66929;-85
2021/12/27 00:30:20;;;;;;;9.93;9.13;;;9.10;63.10;;;;;;21396;6637;66696;-84
2021/12/27 00:32:43;;;;;;;9.50;8.60;;;8.90;63.80;;;;;;21381;6641;66703;-84
2021/12/27 00:35:09;;;;;;;12.47;11.63;;;8.80;64.60;;;;;;21162;6641;271538;-84
2021/12/27 00:37:35;;;;;;;12.90;12.00;;;9.30;64.10;;;;;;21153;6641;293837;-84
2021/12/27 00:40:01;;;;;;;10.60;9.80;;;9.30;64.00;;;;;;21419;6628;72920;-84
2021/12/27 00:42:26;;;;;;;12.35;11.38;;;9.30;63.60;;;;;;21158;6641;301804;-84
2021/12/27 00:44:52;;;;;;;11.10;10.20;;;9.50;63.70;;;;;;21450;6628;66565;-83
2021/12/27 00:47:17;;;;;;;8.07;7.53;;;9.40;63.60;;;;;;21398;6641;66621;-88
2021/12/27 00:49:44;;;;;;;8.57;7.97;;;9.10;65.00;;;;;;21372;6641;66814;-84
2021/12/27 00:52:09;;;;;;;8.30;7.77;;;9.10;64.90;;;;;;21384;6641;66882;-83
2021/12/27 00:54:35;;;;;;;11.80;10.93;;;8.90;64.80;;;;;;21163;6641;302931;-84
2021/12/27 00:57:00;;;;;;;13.38;12.37;;;9.10;65.10;;;;;;21167;6641;292516;-84
2021/12/27 00:59:26;;;;;;;11.53;10.33;;;9.40;63.90;;;;;;21421;6628;66803;-85
2021/12/27 01:01:52;;;;;;;15.07;13.52;;;9.40;63.50;;;;;;21174;6639;283101;-84
2021/12/27 01:04:17;;;;;;;12.93;11.63;;;9.40;63.10;;;;;;21429;6628;67828;-85
2021/12/27 01:06:43;;;;;;;10.00;9.10;;;9.30;63.10;;;;;;21409;6640;66589;-83
2021/12/27 01:09:08;;;;;;;17.90;11.37;;;9.10;63.70;;;;;;21202;6640;311185;-84
2021/12/27 01:12:07;;;;;;;10.38;9.77;;;9.40;62.80;;;;;;21205;6628;304356;-84
2021/12/27 01:14:13;;;;;;;8.97;8.37;;;9.40;62.80;;;;;;21308;6640;66936;-84
2021/12/27 01:16:35;;;;;;;9.20;8.40;;;9.30;62.90;;;;;;21376;6640;66475;-84
2021/12/27 01:19:01;;;;;;;8.53;7.83;;;9.10;63.50;;;;;;21380;6640;69887;-84
2021/12/27 01:21:26;;;;;;;8.77;8.18;;;8.80;64.10;;;;;;21386;6640;66196;-84
2021/12/27 01:23:52;;;;;;;10.47;9.77;;;8.60;64.60;;;;;;21158;6640;300799;-84
2021/12/27 01:26:17;;;;;;;8.35;7.75;;;8.70;64.10;;;;;;21379;6640;66901;-84
2021/12/27 01:28:43;;;;;;;8.90;8.30;;;8.70;63.80;;;;;;21148;6646;285031;-84
2021/12/27 01:31:08;;;;;;;7.43;6.83;;;8.80;63.20;;;;;;21424;6626;71778;-83
2021/12/27 01:33:34;;;;;;;7.83;7.30;;;8.80;63.20;;;;;;21377;6640;70592;-84
2021/12/27 01:35:59;;;;;;;7.47;6.87;;;8.50;63.70;;;;;;21377;6640;77708;-83
2021/12/27 01:38:25;;;;;;;8.50;8.00;;;8.40;64.40;;;;;;21205;6628;272136;-83
2021/12/27 01:40:51;;;;;;;8.60;8.00;;;8.50;64.40;;;;;;21158;6641;305011;-84
2021/12/27 01:43:24;;;;;;;7.15;6.72;;;8.80;63.00;;;;;;21408;6641;66548;-82
2021/12/27 01:45:51;;;;;;;7.30;6.80;;;8.70;62.70;;;;;;21438;6628;66582;-89
2021/12/27 01:48:20;;;;;;;7.27;6.77;;;8.50;63.30;;;;;;21377;6641;66747;-84
2021/12/27 01:50:42;;;;;;;6.50;6.10;;;8.20;63.90;;;;;;21370;6641;66558;-83
2021/12/27 01:53:08;;;;;;;8.77;8.18;;;8.20;63.90;;;;;;21166;6641;301767;-83
2021/12/27 01:55:34;;;;;;;7.97;7.30;;;8.20;63.90;;;;;;21378;6641;66312;-84
2021/12/27 01:58:00;;;;;;;6.60;6.20;;;8.20;63.70;;;;;;21376;6641;66191;-84
2021/12/27 02:00:25;;;;;;;7.15;6.68;;;8.00;64.10;;;;;;21375;6641;66599;-84
2021/12/27 02:02:51;;;;;;;6.13;5.73;;;7.90;65.00;;;;;;21375;6641;66247;-83
2021/12/27 02:05:16;;;;;;;8.40;7.80;;;7.80;65.60;;;;;;21196;6628;299895;-86
2021/12/27 02:07:42;;;;;;;7.50;7.00;;;8.00;65.30;;;;;;21144;6641;273817;-86
2021/12/27 02:10:07;;;;;;;7.10;6.60;;;8.50;64.20;;;;;;21363;6641;66847;-88
2021/12/27 02:12:33;;;;;;;7.50;6.90;;;8.50;63.90;;;;;;21437;6639;67113;-89
2021/12/27 02:14:59;;;;;;;7.55;7.07;;;8.30;64.30;;;;;;21155;6640;319543;-86
2021/12/27 02:17:24;;;;;;;6.22;5.82;;;8.50;64.30;;;;;;21368;6640;68769;-85
2021/12/27 02:19:50;;;;;;;9.20;8.60;;;8.50;64.20;;;;;;21151;6640;272311;-86
2021/12/27 02:22:15;;;;;;;8.30;7.80;;;8.70;64.00;;;;;;21135;6640;300929;-85
2021/12/27 02:24:41;;;;;;;9.10;8.40;;;9.00;63.10;;;;;;21373;6640;66773;-85
2021/12/27 02:27:07;;;;;;;9.80;9.10;;;8.70;63.80;;;;;;21367;6640;67221;-88
2021/12/27 02:29:33;;;;;;;8.53;7.93;;;8.70;63.50;;;;;;21369;6640;66415;-85
2021/12/27 02:31:59;;;;;;;8.95;8.35;;;8.40;64.90;;;;;;21368;6640;67646;-85
2021/12/27 02:34:25;;;;;;;9.23;8.53;;;8.40;64.90;;;;;;21382;6640;67453;-86
2021/12/27 02:36:50;;;;;;;9.18;8.45;;;8.30;65.30;;;;;;21454;6628;67576;-89
2021/12/27 02:39:16;;;;;;;8.97;8.27;;;8.20;65.70;;;;;;21388;6640;71384;-85
2021/12/27 02:41:41;;;;;;;8.43;7.83;;;8.10;66.00;;;;;;21377;6640;66753;-85
2021/12/27 02:44:07;;;;;;;11.27;10.47;;;8.20;66.10;;;;;;21153;6640;329687;-85
2021/12/27 02:46:34;;;;;;;10.73;10.02;;;8.20;66.50;;;;;;21150;6640;313104;-86
2021/12/27 02:48:59;;;;;;;11.23;10.43;;;8.60;65.60;;;;;;21140;6643;297108;-85
2021/12/27 02:51:24;;;;;;;10.63;9.63;;;8.90;64.40;;;;;;21410;6626;66175;-85
2021/12/27 02:53:50;;;;;;;8.57;8.07;;;8.90;64.00;;;;;;21371;6641;67022;-85
2021/12/27 02:56:17;;;;;;;9.33;8.60;;;8.70;64.60;;;;;;21157;6641;275621;-87
2021/12/27 02:58:42;;;;;;;9.33;8.80;;;9.00;63.90;;;;;;21154;6641;301937;-88
2021/12/27 03:01:14;;;;;;;7.13;6.73;;;9.00;63.90;;;;;;21417;6641;72436;-89
2021/12/27 03:03:40;;;;;;;5.43;5.13;;;9.00;63.80;;;;;;21387;6641;66205;-88
2021/12/27 03:06:05;;;;;;;7.20;6.80;;;8.80;64.50;;;;;;21154;6641;290023;-87
2021/12/27 03:08:31;;;;;;;6.13;5.73;;;8.90;64.40;;;;;;21370;6641;77480;-85
2021/12/27 03:10:57;;;;;;;6.03;5.60;;;8.70;65.00;;;;;;21372;6641;66935;-85
2021/12/27 03:13:26;;;;;;;6.93;6.60;;;8.70;65.00;;;;;;21147;6641;300741;-86
2021/12/27 03:15:51;;;;;;;6.13;5.73;;;8.80;64.80;;;;;;21424;6626;66837;-85
2021/12/27 03:18:17;;;;;;;5.23;4.93;;;8.80;64.70;;;;;;21344;6641;66182;-85
2021/12/27 03:20:42;;;;;;;4.72;4.43;;;8.70;65.20;;;;;;21465;6628;66781;-89
2021/12/27 03:23:08;;;;;;;4.22;4.03;;;8.50;65.60;;;;;;21376;6641;66666;-88
2021/12/27 03:25:33;;;;;;;3.93;3.73;;;8.40;66.10;;;;;;21370;6639;66394;-86
2021/12/27 03:27:59;;;;;;;4.90;4.60;;;8.30;66.50;;;;;;21159;6640;300516;-88
2021/12/27 03:30:25;;;;;;;4.20;3.97;;;8.60;66.10;;;;;;21353;6644;66839;-85
2021/12/27 03:32:50;;;;;;;4.57;4.37;;;8.60;65.60;;;;;;21197;6625;304484;-84
2021/12/27 03:35:18;;;;;;;4.00;3.80;;;8.80;65.10;;;;;;21365;6640;69361;-88
2021/12/27 03:37:41;;;;;;;3.80;3.60;;;8.80;64.80;;;;;;21137;6640;306165;-87
2021/12/27 03:40:07;;;;;;;4.20;3.80;;;9.00;64.20;;;;;;21355;6640;66805;-85
2021/12/27 03:42:33;;;;;;;4.18;3.97;;;9.00;64.00;;;;;;21154;6640;271440;-86
2021/12/27 03:44:58;;;;;;;4.05;3.78;;;9.10;63.60;;;;;;21380;6640;67055;-85
2021/12/27 03:47:24;;;;;;;4.20;3.77;;;9.10;63.60;;;;;;21411;6628;66132;-85
2021/12/27 03:49:50;;;;;;;4.40;4.20;;;9.00;64.00;;;;;;21155;6640;330300;-85
2021/12/27 03:52:16;;;;;;;4.70;4.40;;;9.00;64.00;;;;;;21361;6640;67001;-88
2021/12/27 03:54:42;;;;;;;4.60;4.40;;;9.10;64.00;;;;;;21153;6640;306179;-87
2021/12/27 03:57:07;;;;;;;4.30;4.10;;;9.10;63.40;;;;;;21364;6644;66209;-88
2021/12/27 04:02:08;;;;;;;4.20;4.00;;;9.20;62.40;;;;;;21155;6641;271882;-87
2021/12/27 04:04:34;;;;;;;3.50;3.33;;;9.40;61.20;;;;;;21383;6641;67072;-85
2021/12/27 04:07:00;;;;;;;4.23;4.03;;;9.30;61.30;;;;;;21225;6628;330902;-86
2021/12/27 04:09:25;;;;;;;4.00;3.80;;;9.30;61.30;;;;;;21378;6641;67173;-86
2021/12/27 04:11:51;;;;;;;4.43;4.22;;;9.10;61.70;;;;;;21153;6641;329968;-87
2021/12/27 04:14:17;;;;;;;4.07;3.87;;;9.10;61.70;;;;;;21383;6641;66700;-87
2021/12/27 04:16:42;;;;;;;3.40;3.20;;;9.00;61.90;;;;;;21414;6641;66705;-89
2021/12/27 04:19:08;;;;;;;3.60;3.40;;;8.70;62.70;;;;;;21240;6628;329525;-89
2021/12/27 04:21:33;;;;;;;3.00;2.90;;;8.80;62.80;;;;;;21358;6641;89037;-87
2021/12/27 04:23:59;;;;;;;3.28;3.12;;;8.80;62.90;;;;;;21152;6641;324836;-85
2021/12/27 04:26:24;;;;;;;2.60;2.50;;;8.90;62.40;;;;;;21373;6641;66289;-85
2021/12/27 04:28:50;;;;;;;3.20;3.00;;;8.80;62.50;;;;;;21152;6641;329854;-88
2021/12/27 04:31:16;;;;;;;2.70;2.60;;;8.90;62.60;;;;;;21356;6641;66274;-88
2021/12/27 04:33:42;;;;;;;2.72;2.62;;;8.70;63.30;;;;;;21369;6641;66657;-86
2021/12/27 04:36:07;;;;;;;3.00;2.83;;;8.70;63.30;;;;;;21411;6626;70626;-86
2021/12/27 04:38:33;;;;;;;2.70;2.60;;;8.50;63.90;;;;;;21271;6625;305006;-90
2021/12/27 04:40:59;;;;;;;2.90;2.80;;;8.70;63.80;;;;;;21373;6640;70504;-85
2021/12/27 04:43:24;;;;;;;3.00;2.90;;;8.70;63.60;;;;;;21154;6640;302333;-89
2021/12/27 04:45:50;;;;;;;2.55;2.45;;;8.80;62.80;;;;;;21379;6640;66806;-88
2021/12/27 04:48:16;;;;;;;2.70;2.50;;;8.80;62.80;;;;;;21369;6640;72188;-88
2021/12/27 04:50:41;;;;;;;2.27;2.17;;;8.70;63.30;;;;;;21378;6640;70206;-86
2021/12/27 04:53:07;;;;;;;2.40;2.30;;;8.50;63.80;;;;;;21399;6640;66491;-86
2021/12/27 04:55:34;;;;;;;2.30;2.20;;;8.30;64.70;;;;;;21373;6640;67166;-85
2021/12/27 04:57:59;;;;;;;2.40;2.30;;;8.30;64.70;;;;;;21386;6640;67239;-88
2021/12/27 05:00:24;;;;;;;2.20;2.10;;;8.20;65.00;;;;;;21388;6640;70502;-85
2021/12/27 05:02:51;;;;;;;3.13;3.00;;;8.30;64.90;;;;;;21164;6640;320660;-86
2021/12/27 05:05:16;;;;;;;3.50;3.30;;;8.30;64.90;;;;;;21159;6640;306945;-85
2021/12/27 05:07:44;;;;;;;3.67;3.47;;;8.70;63.70;;;;;;21195;6628;300572;-88
2021/12/27 05:10:07;;;;;;;3.47;3.27;;;9.10;62.70;;;;;;21360;6640;66975;-89
2021/12/27 05:12:33;;;;;;;3.40;3.20;;;9.00;62.40;;;;;;21381;6640;68774;-86
2021/12/27 05:14:58;;;;;;;3.67;3.47;;;8.80;63.00;;;;;;21196;6626;301732;-88
2021/12/27 05:17:24;;;;;;;2.97;2.87;;;8.90;63.10;;;;;;21373;6641;66740;-87
2021/12/27 05:19:49;;;;;;;3.53;3.33;;;8.90;63.10;;;;;;21165;6641;325775;-87
2021/12/27 05:22:15;;;;;;;3.80;3.60;;;9.00;62.90;;;;;;21155;6641;276316;-88
2021/12/27 05:24:41;;;;;;;3.73;3.43;;;9.50;61.20;;;;;;21156;6641;301393;-87
2021/12/27 05:27:09;;;;;;;3.03;2.90;;;9.50;61.20;;;;;;21376;6641;66707;-88
2021/12/27 05:29:32;;;;;;;3.60;3.40;;;9.40;61.30;;;;;;21379;6641;68349;-88
2021/12/27 05:32:01;;;;;;;3.92;3.72;;;9.20;62.10;;;;;;21167;6641;282817;-86
2021/12/27 05:34:24;;;;;;;3.75;3.55;;;9.20;62.00;;;;;;21184;6641;302496;-88
2021/12/27 05:36:50;;;;;;;3.53;3.23;;;9.40;61.30;;;;;;21397;6641;67420;-86
2021/12/27 05:39:19;;;;;;;3.50;3.30;;;9.30;61.40;;;;;;21382;6641;66226;-85
2021/12/27 05:41:41;;;;;;;2.92;2.83;;;9.00;61.90;;;;;;21362;6628;66545;-89
2021/12/27 05:44:06;;;;;;;3.60;3.40;;;8.70;62.70;;;;;;21172;6641;274321;-85
2021/12/27 05:46:32;;;;;;;3.70;3.50;;;8.80;63.10;;;;;;21157;6641;300651;-86
2021/12/27 05:48:58;;;;;;;3.70;3.50;;;9.00;61.20;;;;;;21157;6639;300110;-86
2021/12/27 05:51:23;;;;;;;3.67;3.47;;;9.30;60.20;;;;;;21202;6628;272322;-88
2021/12/27 05:53:49;;;;;;;3.57;3.37;;;9.40;59.40;;;;;;21407;6640;75547;-86
2021/12/27 05:56:14;;;;;;;5.20;4.90;;;9.10;59.40;;;;;;21428;6640;66193;-90
2021/12/27 05:58:40;;;;;;;5.62;5.22;;;8.70;60.20;;;;;;21171;6640;333503;-88
2021/12/27 06:01:06;;;;;;;5.50;5.20;;;8.80;60.20;;;;;;21147;6640;275937;-88
2021/12/27 06:03:32;;;;;;;4.70;4.40;;;8.80;60.10;;;;;;21207;6628;271978;-86
2021/12/27 06:05:58;;;;;;;4.67;4.43;;;8.70;59.90;;;;;;21358;6641;67354;-87
2021/12/27 06:08:24;;;;;;;3.77;3.50;;;8.70;59.90;;;;;;21357;6640;66693;-85
2021/12/27 06:10:50;;;;;;;4.05;3.80;;;8.10;61.50;;;;;;21339;6640;67091;-85
2021/12/27 06:13:15;;;;;;;3.80;3.60;;;8.00;61.60;;;;;;21376;6640;66571;-85
2021/12/27 06:15:41;;;;;;;4.47;4.20;;;7.80;62.40;;;;;;21150;6640;304509;-86
2021/12/27 06:18:07;;;;;;;3.95;3.75;;;8.20;60.90;;;;;;21147;6640;301200;-85
2021/12/27 06:20:33;;;;;;;3.40;3.23;;;8.10;60.90;;;;;;21354;6640;66670;-88
2021/12/27 06:22:58;;;;;;;4.17;3.73;;;8.00;60.80;;;;;;21365;6640;66738;-89
2021/12/27 06:25:24;;;;;;;3.73;3.53;;;7.80;61.60;;;;;;21154;6641;330816;-85
2021/12/27 06:27:49;;;;;;;3.63;3.43;;;7.90;62.30;;;;;;21426;6628;88457;-88
2021/12/27 06:30:15;;;;;;;3.30;3.10;;;7.80;62.20;;;;;;21378;6641;66220;-86
2021/12/27 06:32:41;;;;;;;3.47;3.27;;;7.60;62.70;;;;;;21380;6641;66608;-86
2021/12/27 06:35:07;;;;;;;4.32;4.12;;;7.60;63.50;;;;;;21158;6641;300642;-84
2021/12/27 06:37:32;;;;;;;3.67;3.47;;;7.60;63.40;;;;;;21366;6641;67123;-85
2021/12/27 06:39:58;;;;;;;4.30;4.00;;;7.60;63.10;;;;;;21369;6641;66718;-88
2021/12/27 06:42:24;;;;;;;3.77;3.57;;;7.50;63.70;;;;;;21411;6628;73781;-87
2021/12/27 06:44:49;;;;;;;4.87;4.57;;;7.30;64.10;;;;;;21156;6641;337801;-87
2021/12/27 06:47:15;;;;;;;4.82;4.53;;;7.50;64.10;;;;;;21374;6641;67113;-86
2021/12/27 06:49:42;;;;;;;4.50;4.20;;;7.50;63.80;;;;;;21375;6641;66943;-87
2021/12/27 06:52:06;;;;;;;5.28;4.97;;;7.40;64.10;;;;;;21206;6641;303567;-87
2021/12/27 06:54:32;;;;;;;5.40;5.00;;;7.60;63.90;;;;;;21239;6626;332581;-89
2021/12/27 06:56:59;;;;;;;4.37;4.13;;;7.90;63.00;;;;;;21388;6641;66676;-86
2021/12/27 06:59:23;;;;;;;4.17;3.87;;;7.80;62.70;;;;;;21385;6639;66730;-87
2021/12/27 07:01:48;;;;;;;4.47;4.27;;;7.70;63.30;;;;;;21493;6628;89729;-87
2021/12/27 07:04:14;;;;;;;4.87;4.47;;;7.30;64.40;;;;;;21417;6640;67146;-85
2021/12/27 07:06:40;;;;;;;4.90;4.70;;;7.30;64.40;;;;;;21177;6640;272433;-86
2021/12/27 07:09:06;;;;;;;5.40;5.10;;;7.50;64.00;;;;;;21229;6640;303467;-89
2021/12/27 07:11:31;;;;;;;4.32;4.03;;;7.80;63.10;;;;;;21427;6640;66613;-89
2021/12/27 07:13:57;;;;;;;5.37;5.07;;;7.80;62.80;;;;;;21195;6640;300444;-88
2021/12/27 07:16:25;;;;;;;4.77;4.43;;;7.90;62.30;;;;;;21381;6640;67347;-86
2021/12/27 07:18:48;;;;;;;5.62;5.22;;;7.80;62.40;;;;;;21193;6628;272648;-87
2021/12/27 07:21:13;;;;;;;4.30;4.10;;;7.90;62.50;;;;;;21378;6641;66193;-88
2021/12/27 07:23:40;;;;;;;5.40;5.10;;;7.90;62.60;;;;;;21171;6640;271777;-87
2021/12/27 07:26:05;;;;;;;4.53;4.23;;;7.90;62.60;;;;;;21382;6640;66197;-85
2021/12/27 07:28:32;;;;;;;5.25;4.95;;;8.00;62.90;;;;;;21170;6640;273331;-85
2021/12/27 07:30:57;;;;;;;5.20;4.90;;;8.00;62.90;;;;;;21156;6640;298974;-85
2021/12/27 07:33:23;;;;;;;5.00;4.70;;;8.20;62.10;;;;;;21168;6640;329934;-86
2021/12/27 07:35:48;;;;;;;4.27;3.97;;;8.50;61.60;;;;;;21377;6640;66912;-84
2021/12/27 07:38:14;;;;;;;5.00;4.70;;;8.40;61.70;;;;;;21139;6641;300889;-84
2021/12/27 07:40:39;;;;;;;4.97;4.67;;;8.40;61.90;;;;;;21128;6641;300155;-85
2021/12/27 07:43:05;;;;;;;4.20;4.00;;;8.60;61.20;;;;;;21381;6641;66753;-88
2021/12/27 07:45:30;;;;;;;3.70;3.40;;;8.40;61.20;;;;;;21364;6641;66618;-87
2021/12/27 07:47:57;;;;;;;4.10;3.90;;;8.10;61.90;;;;;;21208;6628;274759;-83
2021/12/27 07:50:22;;;;;;;4.33;4.13;;;8.20;62.10;;;;;;21139;6641;304421;-86
2021/12/27 07:52:47;;;;;;;4.53;4.23;;;8.40;61.50;;;;;;21153;6641;300935;-85
2021/12/27 07:55:13;;;;;;;3.90;3.60;;;8.60;60.70;;;;;;21424;6626;69758;-85
2021/12/27 07:57:38;;;;;;;4.45;4.15;;;8.50;60.90;;;;;;21161;6641;301428;-85
2021/12/27 08:00:04;;;;;;;4.47;4.17;;;8.50;60.90;;;;;;21147;6641;301736;-85
2021/12/27 08:02:30;;;;;;;4.57;4.27;;;8.70;60.50;;;;;;21371;6641;69425;-86
2021/12/27 08:04:56;;;;;;;5.00;4.70;;;8.60;61.50;;;;;;21164;6641;278882;-85
2021/12/27 08:07:21;;;;;;;4.13;3.83;;;8.60;60.90;;;;;;21398;6641;69161;-86
2021/12/27 08:09:48;;;;;;;4.05;3.85;;;8.30;62.00;;;;;;21465;6641;66587;-86
2021/12/27 08:12:14;;;;;;;4.37;4.03;;;8.30;62.00;;;;;;21380;6639;66700;-86
2021/12/27 08:14:39;;;;;;;4.30;4.10;;;8.10;62.70;;;;;;21159;6640;301345;-87
2021/12/27 08:17:04;;;;;;;3.70;3.50;;;8.30;62.80;;;;;;21416;6628;66719;-85
2021/12/27 08:19:30;;;;;;;4.28;3.97;;;8.40;63.00;;;;;;21174;6640;275952;-87
2021/12/27 08:21:56;;;;;;;3.93;3.63;;;9.00;61.90;;;;;;21170;6640;301784;-86
2021/12/27 08:24:22;;;;;;;3.23;3.07;;;9.00;61.80;;;;;;21381;6640;66570;-86
2021/12/27 08:26:47;;;;;;;3.50;3.30;;;9.00;61.80;;;;;;21161;6640;278285;-86
2021/12/27 08:29:13;;;;;;;3.30;3.00;;;9.20;61.10;;;;;;21383;6640;67204;-85
2021/12/27 08:31:38;;;;;;;3.60;3.40;;;9.30;61.50;;;;;;21415;6640;66195;-86
2021/12/27 08:34:04;;;;;;;3.30;3.10;;;9.20;62.20;;;;;;21402;6640;66736;-85
2021/12/27 08:36:30;;;;;;;3.73;3.53;;;9.10;62.70;;;;;;21175;6640;271299;-85
2021/12/27 08:38:55;;;;;;;3.57;3.37;;;9.40;62.40;;;;;;21167;6640;299698;-85
2021/12/27 08:41:27;;;;;;;3.03;2.93;;;9.70;61.10;;;;;;21382;6640;67037;-85
2021/12/27 08:43:46;;;;;;;3.10;2.97;;;9.80;61.10;;;;;;21146;6640;295590;-85
2021/12/27 08:46:12;;;;;;;3.60;3.37;;;10.20;58.80;;;;;;21160;6640;296103;-84
2021/12/27 08:48:38;;;;;;;2.97;2.87;;;10.20;58.70;;;;;;21426;6628;66626;-85
2021/12/27 08:51:04;;;;;;;2.80;2.60;;;10.30;58.90;;;;;;21388;6641;66229;-86
2021/12/27 08:53:29;;;;;;;3.53;3.33;;;10.00;59.30;;;;;;21198;6641;335894;-83
2021/12/27 08:55:55;;;;;;;3.15;2.95;;;10.10;59.70;;;;;;21431;6641;66694;-86
2021/12/27 08:58:20;;;;;;;3.20;3.00;;;10.10;60.00;;;;;;21426;6641;67860;-85
2021/12/27 09:00:46;;;;;;;2.87;2.67;;;10.00;60.50;;;;;;21452;6626;66905;-86
2021/12/27 09:03:12;;;;;;;2.70;2.50;;;9.90;62.70;;;;;;21381;6641;66631;-86
2021/12/27 09:05:41;;;;;;;3.30;3.10;;;9.80;62.60;;;;;;21207;6628;299924;-85
2021/12/27 09:08:08;;;;;;;2.37;2.27;;;10.20;60.60;;;;;;21384;6641;66197;-85
2021/12/27 09:10:33;;;;;;;2.93;2.47;;;10.20;60.60;;;;;;21385;6641;66174;-88
2021/12/27 09:13:00;;;;;;;2.80;2.60;;;10.20;61.10;;;;;;21389;6641;66702;-86
2021/12/27 09:15:24;;;;;;;3.10;2.90;;;10.20;61.40;;;;;;21168;6641;299995;-87
2021/12/27 09:17:49;;;;;;;2.87;2.67;;;10.40;60.00;;;;;;21488;6626;66656;-86
2021/12/27 09:20:15;;;;;;;2.50;2.30;;;10.80;58.60;;;;;;21165;6641;295782;-86
2021/12/27 09:22:41;;;;;;;5.30;2.63;;;10.80;58.60;;;;;;21391;6639;66207;-86
2021/12/27 09:25:07;;;;;;;2.70;2.50;;;10.80;58.40;;;;;;21396;6640;66227;-86
2021/12/27 09:27:32;;;;;;;5.90;2.80;;;10.70;58.70;;;;;;21440;6640;70516;-87
2021/12/27 09:29:58;;;;;;;3.00;2.80;;;10.50;59.00;;;;;;21212;6628;304116;-89
2021/12/27 09:32:24;;;;;;;2.47;2.37;;;10.50;57.50;;;;;;21387;6640;66231;-88
2021/12/27 09:34:50;;;;;;;3.20;3.00;;;10.50;57.60;;;;;;21162;6640;330000;-88
2021/12/27 09:37:16;;;;;;;3.97;3.17;;;10.60;56.70;;;;;;21167;6640;303733;-88
2021/12/27 09:39:41;;;;;;;3.35;3.10;;;10.80;56.20;;;;;;21172;6640;272254;-86
2021/12/27 09:42:07;;;;;;;3.37;3.17;;;11.00;55.80;;;;;;21423;6632;66632;-87
2021/12/27 09:44:33;;;;;;;2.87;2.77;;;10.90;56.30;;;;;;21411;6637;67053;-89
2021/12/27 09:46:58;;;;;;;2.70;2.58;;;10.70;57.40;;;;;;21410;6637;67172;-86
2021/12/27 09:49:29;;;;;;;3.12;2.92;;;10.70;58.10;;;;;;21185;6640;330099;-85
2021/12/27 09:51:50;;;;;;;2.27;2.17;;;10.70;58.10;;;;;;21385;6640;66613;-87
2021/12/27 09:54:16;;;;;;;3.93;2.50;;;10.90;58.50;;;;;;21383;6640;66353;-87
2021/12/27 09:56:41;;;;;;;3.90;3.50;;;10.90;59.10;;;;;;21172;6640;271874;-85
2021/12/27 09:59:07;;;;;;;3.10;2.80;;;11.20;57.80;;;;;;21464;6628;66495;-87
2021/12/27 10:01:32;;;;;;;2.97;2.77;;;11.40;57.80;;;;;;21421;6641;88805;-86
2021/12/27 10:03:58;;;;;;;3.20;3.00;;;11.30;58.00;;;;;;21408;6641;66384;-85
2021/12/27 10:06:23;;;;;;;3.22;3.00;;;11.30;58.00;;;;;;21393;6641;67126;-87
2021/12/27 10:08:50;;;;;;;4.20;3.70;;;11.20;58.30;;;;;;21389;6641;66681;-86
2021/12/27 10:11:29;;;;;;;60.00;10.63;;;11.10;58.50;;;;;;21176;6641;271524;-87
2021/12/27 10:13:56;;;;;;;46.50;10.53;;;11.30;56.70;;;;;;21201;6641;303893;-85
2021/12/27 10:16:22;;;;;;;60.00;12.10;;;11.80;55.50;;;;;;21388;6641;68796;-86
2021/12/27 10:18:47;;;;;;;13.88;6.30;;;11.80;55.50;;;;;;21224;6628;284526;-84
2021/12/27 10:21:13;;;;;;;5.37;4.97;;;11.90;54.40;;;;;;21195;6641;301965;-86
2021/12/27 10:23:38;;;;;;;3.87;3.67;;;12.20;53.30;;;;;;21434;6641;70612;-87
2021/12/27 10:26:04;;;;;;;4.53;4.22;;;12.10;53.90;;;;;;21209;6641;329865;-85
2021/12/27 10:28:30;;;;;;;4.40;4.00;;;12.20;53.50;;;;;;21391;6641;66237;-85
2021/12/27 10:30:55;;;;;;;4.57;4.30;;;12.10;54.90;;;;;;21181;6641;300462;-85
2021/12/27 10:33:23;;;;;;;4.60;4.30;;;12.20;53.80;;;;;;21387;6639;88483;-84
2021/12/27 10:35:46;;;;;;;4.80;4.50;;;12.10;54.50;;;;;;21155;6640;338601;-84
2021/12/27 10:38:25;;;;;;;4.40;4.10;;;12.20;54.10;;;;;;21133;6640;282980;-84
2021/12/27 10:40:50;;;;;;;4.17;3.93;;;12.40;53.30;;;;;;21422;6640;69510;-86
2021/12/27 10:43:16;;;;;;;4.70;4.40;;;12.40;54.00;;;;;;21249;6625;299645;-86
2021/12/27 10:45:41;;;;;;;4.30;4.10;;;12.40;53.10;;;;;;21201;6640;328686;-86
2021/12/27 10:48:07;;;;;;;3.80;3.60;;;12.60;52.90;;;;;;21440;6640;70488;-87
2021/12/27 10:50:34;;;;;;;4.30;4.00;;;12.60;53.60;;;;;;21267;6628;328970;-85
2021/12/27 10:52:58;;;;;;;3.70;3.40;;;12.70;53.10;;;;;;21387;6640;67117;-85
2021/12/27 10:55:26;;;;;;;3.93;3.73;;;12.70;53.80;;;;;;21163;6640;271999;-85
2021/12/27 10:57:52;;;;;;;3.92;3.72;;;12.80;52.90;;;;;;21126;6640;284223;-86
2021/12/27 11:00:24;;;;;;;3.80;3.60;;;13.00;52.40;;;;;;21327;6640;66583;-85
2021/12/27 11:02:51;;;;;;;3.90;3.70;;;13.00;52.90;;;;;;21207;6626;273734;-85
2021/12/27 11:05:16;;;;;;;4.20;4.00;;;13.00;52.00;;;;;;21165;6640;302974;-85
2021/12/27 11:07:41;;;;;;;3.90;3.70;;;13.10;51.90;;;;;;21168;6640;271027;-84
2021/12/27 11:10:07;;;;;;;4.10;3.90;;;13.30;51.90;;;;;;21173;6640;271616;-88
2021/12/27 11:12:32;;;;;;;4.22;3.92;;;13.40;50.90;;;;;;21218;6626;271351;-85
2021/12/27 11:14:58;;;;;;;4.27;3.97;;;13.50;51.00;;;;;;21195;6641;303293;-85
2021/12/27 11:17:23;;;;;;;3.25;3.05;;;13.60;51.20;;;;;;21414;6641;66645;-85
2021/12/27 11:19:49;;;;;;;3.78;3.58;;;13.30;51.90;;;;;;21187;6643;300740;-86
2021/12/27 11:22:14;;;;;;;3.60;3.40;;;13.20;51.50;;;;;;21413;6641;66276;-86
2021/12/27 11:24:42;;;;;;;3.67;3.37;;;13.10;52.40;;;;;;21216;6641;327816;-86
2021/12/27 11:27:09;;;;;;;3.47;3.28;;;13.10;52.30;;;;;;21247;6628;271987;-88
2021/12/27 11:29:34;;;;;;;3.60;3.40;;;13.20;51.50;;;;;;21168;6641;330069;-85
2021/12/27 11:32:11;;;;;;;3.07;2.87;;;13.40;51.50;;;;;;21392;6641;66309;-87
2021/12/27 11:34:52;;;;;;;18.70;6.30;;;13.30;52.20;;;;;;21399;6626;67656;-89
2021/12/27 11:37:18;;;;;;;13.40;5.20;;;13.10;53.30;;;;;;21169;6641;289650;-87
2021/12/27 11:39:43;;;;;;;5.40;3.70;;;13.20;53.10;;;;;;21469;6628;66251;-86
2021/12/27 11:42:10;;;;;;;3.50;3.30;;;12.90;53.60;;;;;;21409;6641;66220;-87
2021/12/27 11:44:44;;;;;;;3.63;3.43;;;12.90;53.60;;;;;;21393;6641;66627;-85
2021/12/27 11:47:07;;;;;;;3.43;3.23;;;12.70;54.20;;;;;;21372;6638;66723;-88
2021/12/27 11:49:42;;;;;;;4.05;3.50;;;12.50;54.80;;;;;;21408;6640;66571;-86
2021/12/27 11:52:31;;;;;;;4.30;4.00;;;12.30;55.10;;;;;;21229;6625;276888;-85
2021/12/27 11:55:00;;;;;;;4.10;3.80;;;12.50;53.50;;;;;;21179;6640;271797;-85
2021/12/27 11:57:48;;;;;;;3.93;3.73;;;12.80;52.50;;;;;;21156;6640;303458;-85
2021/12/27 12:00:16;;;;;;;3.50;3.30;;;13.10;51.60;;;;;;21449;6628;66910;-86
2021/12/27 12:02:42;;;;;;;4.07;3.87;;;12.90;52.00;;;;;;21235;6626;299196;-85
2021/12/27 12:05:07;;;;;;;3.37;3.17;;;12.80;51.40;;;;;;21376;6640;66323;-85
2021/12/27 12:07:33;;;;;;;3.20;3.10;;;12.70;52.10;;;;;;21432;6628;88643;-87
2021/12/27 12:09:59;;;;;;;3.10;3.00;;;12.40;52.90;;;;;;21381;6641;66689;-85
2021/12/27 12:12:26;;;;;;;3.40;3.20;;;12.20;53.60;;;;;;21228;6626;66413;-87
2021/12/27 12:14:53;;;;;;;3.70;3.50;;;12.00;54.10;;;;;;21190;6628;271400;-87
2021/12/27 12:17:18;;;;;;;3.37;3.10;;;12.20;52.90;;;;;;21382;6640;66272;-85
2021/12/27 12:19:44;;;;;;;7.80;3.45;;;12.20;53.30;;;;;;21114;6640;278276;-86
2021/12/27 12:22:30;;;;;;;3.47;3.17;;;12.30;52.30;;;;;;21383;6640;66189;-86
2021/12/27 12:25:19;;;;;;;3.20;3.00;;;12.30;52.90;;;;;;21357;6641;66643;-86
2021/12/27 12:27:56;;;;;;;3.40;3.20;;;12.10;53.60;;;;;;20913;6626;271465;-87
2021/12/27 12:30:22;;;;;;;3.10;2.90;;;12.20;52.90;;;;;;21423;6641;69542;-88
2021/12/27 12:33:08;;;;;;;3.12;2.92;;;12.10;54.30;;;;;;21383;6641;66998;-85
2021/12/27 12:35:50;;;;;;;3.20;3.00;;;12.10;54.20;;;;;;21146;6641;304734;-86
2021/12/27 12:38:15;;;;;;;2.90;2.80;;;12.30;53.70;;;;;;21342;6641;66675;-85
2021/12/27 12:40:41;;;;;;;3.72;2.90;;;12.40;54.10;;;;;;21376;6641;66626;-84
2021/12/27 12:43:06;;;;;;;3.17;2.97;;;12.30;54.60;;;;;;21391;6641;66611;-85
2021/12/27 12:45:32;;;;;;;2.93;2.67;;;12.10;54.90;;;;;;21428;6628;66725;-87